createdAt,value
2023-05-05T00:00:50.441Z,188.85
2023-05-05T00:01:50.514Z,185.41
2023-05-05T00:02:50.557Z,186.87
2023-05-05T00:03:50.707Z,191.78
2023-05-05T00:04:50.648Z,192.93
2023-05-05T00:05:50.650Z,194.62
2023-05-05T00:06:50.661Z,196.74
2023-05-05T00:07:50.684Z,196.43
2023-05-05T00:08:50.719Z,194.49
2023-05-05T00:09:50.773Z,191.85
2023-05-05T00:10:50.774Z,192.84
2023-05-05T00:11:50.808Z,193.05
2023-05-05T00:12:50.877Z,193.80
2023-05-05T00:13:50.896Z,194.63
2023-05-05T00:14:50.931Z,194.39
2023-05-05T00:15:51.006Z,195.70
2023-05-05T00:16:51.056Z,194.04
2023-05-05T00:17:51.106Z,194.48
2023-05-05T00:18:51.101Z,193.81
2023-05-05T00:19:51.161Z,192.35
2023-05-05T00:20:51.197Z,193.35
2023-05-05T00:21:51.208Z,191.69
2023-05-05T00:22:51.255Z,192.98
2023-05-05T00:23:51.281Z,194.02
2023-05-05T00:24:51.315Z,196.35
2023-05-05T00:25:51.346Z,195.79
2023-05-05T00:26:51.398Z,195.68
2023-05-05T00:27:51.413Z,196.91
2023-05-05T00:28:51.460Z,197.06
2023-05-05T00:29:51.522Z,198.09
2023-05-05T00:30:51.594Z,197.18
2023-05-05T00:31:51.564Z,198.49
2023-05-05T00:32:51.634Z,196.88
2023-05-05T00:33:51.658Z,198.00
2023-05-05T00:34:51.817Z,199.59
2023-05-05T00:35:51.974Z,200.11
2023-05-05T00:36:52.114Z,200.09
2023-05-05T00:37:52.253Z,198.53
2023-05-05T00:38:52.384Z,200.17
2023-05-05T00:39:52.529Z,203.03
2023-05-05T00:40:52.537Z,202.67
2023-05-05T00:41:52.619Z,205.72
2023-05-05T00:42:52.638Z,202.97
2023-05-05T00:43:52.624Z,204.60
2023-05-05T00:44:52.603Z,204.71
2023-05-05T00:45:52.592Z,205.55
2023-05-05T00:46:52.669Z,206.57
2023-05-05T00:47:52.762Z,207.94
2023-05-05T00:48:52.614Z,210.25
2023-05-05T00:49:52.573Z,210.69
2023-05-05T00:50:52.564Z,210.90
2023-05-05T00:51:52.572Z,213.71
2023-05-05T00:52:52.551Z,212.07
2023-05-05T00:53:52.591Z,213.50
2023-05-05T00:54:52.580Z,213.69
2023-05-05T00:55:52.560Z,212.85
2023-05-05T00:56:52.570Z,213.44
2023-05-05T00:57:52.598Z,213.55
2023-05-05T00:58:52.541Z,214.66
2023-05-05T00:59:52.539Z,214.80
2023-05-05T01:00:52.547Z,211.75
2023-05-05T01:01:52.562Z,212.04
2023-05-05T01:02:52.729Z,216.43
2023-05-05T01:03:52.599Z,212.89
2023-05-05T01:04:52.504Z,211.34
2023-05-05T01:05:52.498Z,211.55
2023-05-05T01:06:52.497Z,211.63
2023-05-05T01:07:52.488Z,208.24
2023-05-05T01:08:52.489Z,209.77
2023-05-05T01:10:15.239Z,207.22
2023-05-05T01:10:53.484Z,205.27
2023-05-05T01:11:52.483Z,203.12
2023-05-05T01:12:52.956Z,205.00
2023-05-05T01:13:52.463Z,198.97
2023-05-05T01:14:52.437Z,195.71
2023-05-05T01:15:52.480Z,196.94
2023-05-05T01:16:52.440Z,199.63
2023-05-05T01:17:52.483Z,203.63
2023-05-05T01:18:52.440Z,199.24
2023-05-05T01:19:52.418Z,193.70
2023-05-05T01:20:52.411Z,189.76
2023-05-05T01:21:52.407Z,186.42
2023-05-05T01:22:52.413Z,181.37
2023-05-05T01:23:52.376Z,183.26
2023-05-05T01:24:52.401Z,187.78
2023-05-05T01:25:52.439Z,190.70
2023-05-05T01:26:52.440Z,190.01
2023-05-05T01:27:52.487Z,192.62
2023-05-05T01:28:52.488Z,190.86
2023-05-05T01:29:52.539Z,197.80
2023-05-05T01:30:52.544Z,191.45
2023-05-05T01:31:52.603Z,191.62
2023-05-05T01:32:52.633Z,194.76
2023-05-05T01:33:52.607Z,185.41
2023-05-05T01:34:52.625Z,190.07
2023-05-05T01:35:52.651Z,186.22
2023-05-05T01:36:52.660Z,185.78
2023-05-05T01:37:52.672Z,190.26
2023-05-05T01:38:52.673Z,185.49
2023-05-05T01:39:52.711Z,192.63
2023-05-05T01:40:52.739Z,191.55
2023-05-05T01:41:52.728Z,190.35
2023-05-05T01:42:52.781Z,195.30
2023-05-05T01:43:52.792Z,188.07
2023-05-05T01:44:52.829Z,189.02
2023-05-05T01:45:52.877Z,186.77
2023-05-05T01:46:52.839Z,191.11
2023-05-05T01:47:52.948Z,191.62
2023-05-05T01:48:52.860Z,194.67
2023-05-05T01:49:52.871Z,203.82
2023-05-05T01:50:52.882Z,203.63
2023-05-05T01:51:52.894Z,203.87
2023-05-05T01:52:52.920Z,202.61
2023-05-05T01:53:52.947Z,205.34
2023-05-05T01:54:52.965Z,204.06
2023-05-05T01:55:53.007Z,203.55
2023-05-05T01:56:53.088Z,203.74
2023-05-05T01:57:53.086Z,207.17
2023-05-05T01:58:53.141Z,208.37
2023-05-05T01:59:53.255Z,204.96
2023-05-05T02:00:53.185Z,207.33
2023-05-05T02:01:53.235Z,204.54
2023-05-05T02:02:53.383Z,207.11
2023-05-05T02:03:53.292Z,212.09
2023-05-05T02:04:53.291Z,212.16
2023-05-05T02:05:53.331Z,212.26
2023-05-05T02:06:53.428Z,212.61
2023-05-05T02:07:53.364Z,213.50
2023-05-05T02:08:53.399Z,209.68
2023-05-05T02:09:53.423Z,205.05
2023-05-05T02:10:53.434Z,203.72
2023-05-05T02:11:53.468Z,207.96
2023-05-05T02:12:53.478Z,205.46
2023-05-05T02:13:53.539Z,207.75
2023-05-05T02:14:53.553Z,208.03
2023-05-05T02:15:53.574Z,214.16
2023-05-05T02:16:53.592Z,214.42
2023-05-05T02:17:53.626Z,213.67
2023-05-05T02:18:53.650Z,213.62
2023-05-05T02:19:53.676Z,213.32
2023-05-05T02:20:53.726Z,215.32
2023-05-05T02:21:53.772Z,214.07
2023-05-05T02:22:53.827Z,213.18
2023-05-05T02:23:53.820Z,215.50
2023-05-05T02:24:53.856Z,212.84
2023-05-05T02:25:53.869Z,213.00
2023-05-05T02:26:53.920Z,211.43
2023-05-05T02:27:53.960Z,213.18
2023-05-05T02:28:53.970Z,211.09
2023-05-05T02:29:54.014Z,213.37
2023-05-05T02:30:54.072Z,215.38
2023-05-05T02:31:54.212Z,215.49
2023-05-05T02:32:54.206Z,212.79
2023-05-05T02:33:54.180Z,214.04
2023-05-05T02:34:54.214Z,217.18
2023-05-05T02:35:54.238Z,214.93
2023-05-05T02:36:54.247Z,216.87
2023-05-05T02:37:54.276Z,218.38
2023-05-05T02:38:54.301Z,220.01
2023-05-05T02:39:54.318Z,223.08
2023-05-05T02:40:54.350Z,227.66
2023-05-05T02:41:54.400Z,229.43
2023-05-05T02:42:54.477Z,224.92
2023-05-05T02:43:54.449Z,217.41
2023-05-05T02:44:54.502Z,213.57
2023-05-05T02:45:54.517Z,214.45
2023-05-05T02:46:54.709Z,214.57
2023-05-05T02:47:54.742Z,216.18
2023-05-05T02:48:54.831Z,218.86
2023-05-05T02:49:54.970Z,221.74
2023-05-05T02:50:55.128Z,224.78
2023-05-05T02:51:55.388Z,223.45
2023-05-05T02:52:55.524Z,222.67
2023-05-05T02:53:55.790Z,224.96
2023-05-05T02:54:55.971Z,224.24
2023-05-05T02:55:56.149Z,220.95
2023-05-05T02:56:56.194Z,221.05
2023-05-05T02:57:56.182Z,224.13
2023-05-05T02:58:56.388Z,223.62
2023-05-05T02:59:56.274Z,220.34
2023-05-05T03:00:56.332Z,219.72
2023-05-05T03:01:56.368Z,220.54
2023-05-05T03:02:56.289Z,219.70
2023-05-05T03:03:56.385Z,219.68
2023-05-05T03:04:56.230Z,222.55
2023-05-05T03:05:56.220Z,223.68
2023-05-05T03:06:56.209Z,222.06
2023-05-05T03:07:56.257Z,222.56
2023-05-05T03:08:56.192Z,223.53
2023-05-05T03:09:56.219Z,229.27
2023-05-05T03:10:56.190Z,223.42
2023-05-05T03:11:56.183Z,219.14
2023-05-05T03:12:56.220Z,219.42
2023-05-05T03:13:56.179Z,221.95
2023-05-05T03:14:56.166Z,218.05
2023-05-05T03:15:56.212Z,219.63
2023-05-05T03:16:56.138Z,221.56
2023-05-05T03:17:56.208Z,220.65
2023-05-05T03:18:56.117Z,217.33
2023-05-05T03:19:56.105Z,216.45
2023-05-05T03:20:56.125Z,217.62
2023-05-05T03:21:56.116Z,212.97
2023-05-05T03:22:56.105Z,212.27
2023-05-05T03:23:56.094Z,221.05
2023-05-05T03:24:56.078Z,216.40
2023-05-05T03:25:56.066Z,210.70
2023-05-05T03:26:56.060Z,207.09
2023-05-05T03:27:56.043Z,205.25
2023-05-05T03:28:56.040Z,206.44
2023-05-05T03:29:56.030Z,211.06
2023-05-05T03:30:56.038Z,213.93
2023-05-05T03:31:56.082Z,219.33
2023-05-05T03:32:56.112Z,222.89
2023-05-05T03:33:56.002Z,223.83
2023-05-05T03:34:55.996Z,226.93
2023-05-05T03:35:55.996Z,227.89
2023-05-05T03:36:55.989Z,226.51
2023-05-05T03:37:56.007Z,228.97
2023-05-05T03:38:55.980Z,229.23
2023-05-05T03:39:55.958Z,227.49
2023-05-05T03:40:56.001Z,227.85
2023-05-05T03:41:56.041Z,230.47
2023-05-05T03:42:56.088Z,233.89
2023-05-05T03:43:56.138Z,237.44
2023-05-05T03:44:56.192Z,233.72
2023-05-05T03:45:56.321Z,235.73
2023-05-05T03:46:56.297Z,233.24
2023-05-05T03:47:56.379Z,235.01
2023-05-05T03:48:56.416Z,236.00
2023-05-05T03:49:56.480Z,238.24
2023-05-05T03:50:56.548Z,236.91
2023-05-05T03:51:56.588Z,235.76
2023-05-05T03:52:56.636Z,235.96
2023-05-05T03:53:56.779Z,234.29
2023-05-05T03:54:56.799Z,230.30
2023-05-05T03:55:56.852Z,228.30
2023-05-05T03:56:56.898Z,230.78
2023-05-05T03:57:56.961Z,231.10
2023-05-05T03:58:56.994Z,229.18
2023-05-05T03:59:57.064Z,229.30
2023-05-05T04:00:57.116Z,231.02
2023-05-05T04:01:57.182Z,231.89
2023-05-05T04:02:57.330Z,232.68
2023-05-05T04:03:57.340Z,234.08
2023-05-05T04:04:57.347Z,234.05
2023-05-05T04:05:57.411Z,233.59
2023-05-05T04:06:57.459Z,232.89
2023-05-05T04:07:57.510Z,233.45
2023-05-05T04:08:57.578Z,233.15
2023-05-05T04:09:57.613Z,234.59
2023-05-05T04:10:57.662Z,232.78
2023-05-05T04:11:57.740Z,234.70
2023-05-05T04:12:57.800Z,231.26
2023-05-05T04:13:57.843Z,235.21
2023-05-05T04:14:57.896Z,230.32
2023-05-05T04:15:57.995Z,227.49
2023-05-05T04:16:57.988Z,226.29
2023-05-05T04:17:58.103Z,226.23
2023-05-05T04:18:58.063Z,225.95
2023-05-05T04:19:58.125Z,228.14
2023-05-05T04:20:58.191Z,229.93
2023-05-05T04:21:58.228Z,230.99
2023-05-05T04:22:58.298Z,233.25
2023-05-05T04:23:58.353Z,237.34
2023-05-05T04:24:58.410Z,241.76
2023-05-05T04:25:58.483Z,243.09
2023-05-05T04:26:58.508Z,244.01
2023-05-05T04:27:58.558Z,243.39
2023-05-05T04:28:58.620Z,243.51
2023-05-05T04:29:58.669Z,243.23
2023-05-05T04:30:58.769Z,236.90
2023-05-05T04:31:58.767Z,231.99
2023-05-05T04:32:58.883Z,226.73
2023-05-05T04:33:58.937Z,223.68
2023-05-05T04:34:58.971Z,219.48
2023-05-05T04:35:59.033Z,215.72
2023-05-05T04:36:59.085Z,218.18
2023-05-05T04:37:59.185Z,215.56
2023-05-05T04:38:59.231Z,217.48
2023-05-05T04:39:59.477Z,210.30
2023-05-05T04:40:59.431Z,212.05
2023-05-05T04:41:59.419Z,218.45
2023-05-05T04:42:59.468Z,218.70
2023-05-05T04:43:59.538Z,214.88
2023-05-05T04:44:59.595Z,213.39
2023-05-05T04:45:59.670Z,211.27
2023-05-05T04:46:59.712Z,214.64
2023-05-05T04:47:59.883Z,214.94
2023-05-05T04:48:59.830Z,214.84
2023-05-05T04:49:59.877Z,214.59
2023-05-05T04:50:59.932Z,212.66
2023-05-05T04:52:00.027Z,213.17
2023-05-05T04:53:00.084Z,213.61
2023-05-05T04:54:00.152Z,214.37
2023-05-05T04:55:00.242Z,213.82
2023-05-05T04:56:00.253Z,212.36
2023-05-05T04:57:00.308Z,213.25
2023-05-05T04:58:00.359Z,219.63
2023-05-05T04:59:00.471Z,222.02
2023-05-05T05:00:00.490Z,223.83
2023-05-05T05:01:00.563Z,219.85
2023-05-05T05:02:00.631Z,226.54
2023-05-05T05:03:00.757Z,226.02
2023-05-05T05:04:00.701Z,224.38
2023-05-05T05:05:00.752Z,229.81
2023-05-05T05:06:00.812Z,228.76
2023-05-05T05:07:00.877Z,232.65
2023-05-05T05:08:00.850Z,235.36
2023-05-05T05:09:00.941Z,235.18
2023-05-05T05:10:00.941Z,234.81
2023-05-05T05:11:01.014Z,234.23
2023-05-05T05:12:01.051Z,235.92
2023-05-05T05:13:01.124Z,237.63
2023-05-05T05:14:01.125Z,240.57
2023-05-05T05:15:01.161Z,243.75
2023-05-05T05:16:01.220Z,246.58
2023-05-05T05:17:01.232Z,249.72
2023-05-05T05:18:01.329Z,249.77
2023-05-05T05:19:01.933Z,249.77
2023-05-05T05:20:01.310Z,249.41
2023-05-05T05:21:01.348Z,247.21
2023-05-05T05:22:01.369Z,244.99
2023-05-05T05:23:01.470Z,246.31
2023-05-05T05:24:01.440Z,246.84
2023-05-05T05:25:01.463Z,248.71
2023-05-05T05:26:01.578Z,249.08
2023-05-05T05:27:01.546Z,248.49
2023-05-05T05:28:10.324Z,242.80
2023-05-05T05:29:02.966Z,236.03
2023-05-05T05:30:01.594Z,237.36
2023-05-05T05:31:01.626Z,243.58
2023-05-05T05:32:01.598Z,249.41
2023-05-05T05:33:01.889Z,261.13
2023-05-05T05:34:01.584Z,256.06
2023-05-05T05:35:01.526Z,255.26
2023-05-05T05:36:01.522Z,250.00
2023-05-05T05:37:01.510Z,249.87
2023-05-05T05:38:01.530Z,249.00
2023-05-05T05:39:01.504Z,250.00
2023-05-05T05:40:01.509Z,250.00
2023-05-05T05:41:01.512Z,249.60
2023-05-05T05:42:01.494Z,250.09
2023-05-05T05:43:01.508Z,250.00
2023-05-05T05:44:01.480Z,250.00
2023-05-05T05:45:01.572Z,250.00
2023-05-05T05:46:01.539Z,250.00
2023-05-05T05:47:01.472Z,250.00
2023-05-05T05:48:01.531Z,250.00
2023-05-05T05:49:01.509Z,250.00
2023-05-05T05:50:01.598Z,253.65
2023-05-05T05:51:01.588Z,252.13
2023-05-05T05:52:01.603Z,250.00
2023-05-05T05:53:01.602Z,250.00
2023-05-05T05:54:01.620Z,249.71
2023-05-05T05:55:01.624Z,249.47
2023-05-05T05:56:01.596Z,249.92
2023-05-05T05:57:01.650Z,250.00
2023-05-05T05:58:01.671Z,249.76
2023-05-05T05:59:01.704Z,249.66
2023-05-05T06:00:02.306Z,249.67
2023-05-05T06:01:01.799Z,249.90
2023-05-05T06:02:01.940Z,248.76
2023-05-05T06:03:01.880Z,247.18
2023-05-05T06:04:01.894Z,246.65
2023-05-05T06:05:01.859Z,245.13
2023-05-05T06:06:01.875Z,243.83
2023-05-05T06:07:01.915Z,243.28
2023-05-05T06:08:01.944Z,244.51
2023-05-05T06:09:01.943Z,247.98
2023-05-05T06:10:14.425Z,250.00
2023-05-05T06:11:02.982Z,250.04
2023-05-05T06:12:01.966Z,248.90
2023-05-05T06:13:02.014Z,247.98
2023-05-05T06:14:01.974Z,246.49
2023-05-05T06:15:01.944Z,245.90
2023-05-05T06:16:02.003Z,245.12
2023-05-05T06:17:01.925Z,244.97
2023-05-05T06:18:02.005Z,244.82
2023-05-05T06:19:02.067Z,244.50
2023-05-05T06:20:01.900Z,243.79
2023-05-05T06:21:01.931Z,242.99
2023-05-05T06:22:01.988Z,242.69
2023-05-05T06:23:02.043Z,240.52
2023-05-05T06:24:02.061Z,240.46
2023-05-05T06:25:02.070Z,240.55
2023-05-05T06:26:02.136Z,239.99
2023-05-05T06:27:02.123Z,239.20
2023-05-05T06:28:02.187Z,237.53
2023-05-05T06:29:02.194Z,237.33
2023-05-05T06:30:02.247Z,237.01
2023-05-05T06:31:02.335Z,236.66
2023-05-05T06:32:02.643Z,237.20
2023-05-05T06:33:02.464Z,234.72
2023-05-05T06:34:02.472Z,223.78
2023-05-05T06:35:02.517Z,219.21
2023-05-05T06:36:02.573Z,212.06
2023-05-05T06:37:02.613Z,211.36
2023-05-05T06:38:02.639Z,213.77
2023-05-05T06:39:02.701Z,212.08
2023-05-05T06:40:02.754Z,209.23
2023-05-05T06:41:02.769Z,201.03
2023-05-05T06:42:02.774Z,193.81
2023-05-05T06:43:02.818Z,195.86
2023-05-05T06:44:03.107Z,196.70
2023-05-05T06:45:02.886Z,194.13
2023-05-05T06:46:02.906Z,195.44
2023-05-05T06:47:03.156Z,189.47
2023-05-05T06:48:03.689Z,186.11
2023-05-05T06:49:02.965Z,190.80
2023-05-05T06:50:02.992Z,193.12
2023-05-05T06:51:03.097Z,194.55
2023-05-05T06:52:03.057Z,196.87
2023-05-05T06:53:03.050Z,195.47
2023-05-05T06:54:03.098Z,192.73
2023-05-05T06:55:03.066Z,191.84
2023-05-05T06:56:03.071Z,192.50
2023-05-05T06:57:03.087Z,192.82
2023-05-05T06:58:03.090Z,195.49
2023-05-05T06:59:03.126Z,197.46
2023-05-05T07:00:03.140Z,197.39
2023-05-05T07:01:03.191Z,200.83
2023-05-05T07:02:03.141Z,204.49
2023-05-05T07:03:03.165Z,207.00
2023-05-05T07:04:03.220Z,203.22
2023-05-05T07:05:03.143Z,206.56
2023-05-05T07:06:03.167Z,208.79
2023-05-05T07:07:03.208Z,210.45
2023-05-05T07:08:03.207Z,210.26
2023-05-05T07:09:03.606Z,216.02
2023-05-05T07:10:03.234Z,218.26
2023-05-05T07:11:03.247Z,218.60
2023-05-05T07:12:03.595Z,219.04
2023-05-05T07:13:03.289Z,218.94
2023-05-05T07:14:03.286Z,220.45
2023-05-05T07:15:15.458Z,219.64
2023-05-05T07:16:04.347Z,219.74
2023-05-05T07:17:03.289Z,220.03
2023-05-05T07:18:03.336Z,220.42
2023-05-05T07:19:03.257Z,219.94
2023-05-05T07:20:03.327Z,221.47
2023-05-05T07:21:03.277Z,220.91
2023-05-05T07:22:03.246Z,220.37
2023-05-05T07:23:03.235Z,222.83
2023-05-05T07:24:03.292Z,222.30
2023-05-05T07:25:03.250Z,222.08
2023-05-05T07:26:03.225Z,217.66
2023-05-05T07:27:03.216Z,210.68
2023-05-05T07:28:03.215Z,201.80
2023-05-05T07:29:03.187Z,191.33
2023-05-05T07:30:05.505Z,187.46
2023-05-05T07:31:03.179Z,170.06
2023-05-05T07:32:03.720Z,161.75
2023-05-05T07:33:03.239Z,172.74
2023-05-05T07:34:03.191Z,178.61
2023-05-05T07:35:03.155Z,182.35
2023-05-05T07:36:03.283Z,185.64
2023-05-05T07:37:03.616Z,189.84
2023-05-05T07:38:03.138Z,193.26
2023-05-05T07:39:03.138Z,196.24
2023-05-05T07:40:03.128Z,196.49
2023-05-05T07:41:03.110Z,198.13
2023-05-05T07:42:03.137Z,198.98
2023-05-05T07:43:03.142Z,199.90
2023-05-05T07:44:03.099Z,200.98
2023-05-05T07:45:03.094Z,202.49
2023-05-05T07:46:03.260Z,199.64
2023-05-05T07:47:03.153Z,194.42
2023-05-05T07:48:03.340Z,192.99
2023-05-05T07:49:03.623Z,192.63
2023-05-05T07:50:03.620Z,192.20
2023-05-05T07:51:03.686Z,190.36
2023-05-05T07:52:03.793Z,192.35
2023-05-05T07:53:13.809Z,191.86
2023-05-05T07:54:05.113Z,192.05
2023-05-05T07:55:03.775Z,192.85
2023-05-05T07:56:03.832Z,193.97
2023-05-05T07:57:03.783Z,196.32
2023-05-05T07:58:03.795Z,200.59
2023-05-05T07:59:04.099Z,201.60
2023-05-05T08:00:03.746Z,202.77
2023-05-05T08:01:03.737Z,201.83
2023-05-05T08:02:04.122Z,199.93
2023-05-05T08:03:06.294Z,199.07
2023-05-05T08:04:03.912Z,201.48
2023-05-05T08:05:03.803Z,201.55
2023-05-05T08:06:03.781Z,202.19
2023-05-05T08:07:03.781Z,203.25
2023-05-05T08:08:03.856Z,200.61
2023-05-05T08:09:03.773Z,204.29
2023-05-05T08:10:03.833Z,204.84
2023-05-05T08:11:03.746Z,195.17
2023-05-05T08:12:03.759Z,186.28
2023-05-05T08:13:03.757Z,170.26
2023-05-05T08:14:03.761Z,157.40
2023-05-05T08:15:03.739Z,124.72
2023-05-05T08:16:03.723Z,95.23
2023-05-05T08:17:03.737Z,72.35
2023-05-05T08:18:03.742Z,65.49
2023-05-05T08:19:06.225Z,67.04
2023-05-05T08:20:04.687Z,65.81
2023-05-05T08:21:03.675Z,67.59
2023-05-05T08:22:03.697Z,74.68
2023-05-05T08:23:03.700Z,96.56
2023-05-05T08:24:04.237Z,124.70
2023-05-05T08:25:03.652Z,139.97
2023-05-05T08:26:03.661Z,148.08
2023-05-05T08:27:03.672Z,152.62
2023-05-05T08:28:03.700Z,156.44
2023-05-05T08:29:03.781Z,156.61
2023-05-05T08:30:03.695Z,156.86
2023-05-05T08:31:03.726Z,155.51
2023-05-05T08:32:03.695Z,158.50
2023-05-05T08:33:03.755Z,156.79
2023-05-05T08:34:03.749Z,154.11
2023-05-05T08:35:03.748Z,145.17
2023-05-05T08:36:03.814Z,142.58
2023-05-05T08:37:04.008Z,143.96
2023-05-05T08:38:03.868Z,150.26
2023-05-05T08:39:03.914Z,154.03
2023-05-05T08:40:04.016Z,164.66
2023-05-05T08:41:04.011Z,172.41
2023-05-05T08:42:04.019Z,176.90
2023-05-05T08:43:03.996Z,180.82
2023-05-05T08:44:03.971Z,184.28
2023-05-05T08:45:04.004Z,183.42
2023-05-05T08:46:03.990Z,187.74
2023-05-05T08:47:04.228Z,189.46
2023-05-05T08:48:04.103Z,189.31
2023-05-05T08:49:04.156Z,192.56
2023-05-05T08:50:04.177Z,195.52
2023-05-05T08:51:05.498Z,195.03
2023-05-05T08:52:04.271Z,196.20
2023-05-05T08:53:04.428Z,196.16
2023-05-05T08:54:04.653Z,190.59
2023-05-05T08:55:04.443Z,195.59
2023-05-05T08:56:04.492Z,190.92
2023-05-05T08:57:04.483Z,194.07
2023-05-05T08:58:04.560Z,196.23
2023-05-05T08:59:04.679Z,193.77
2023-05-05T09:00:04.653Z,194.13
2023-05-05T09:01:04.749Z,196.50
2023-05-05T09:02:04.794Z,200.21
2023-05-05T09:03:05.053Z,199.44
2023-05-05T09:04:04.947Z,199.07
2023-05-05T09:05:05.250Z,198.87
2023-05-05T09:06:05.040Z,201.12
2023-05-05T09:07:05.088Z,202.95
2023-05-05T09:08:05.170Z,202.74
2023-05-05T09:09:05.224Z,202.96
2023-05-05T09:10:05.283Z,204.23
2023-05-05T09:11:05.324Z,205.14
2023-05-05T09:12:05.459Z,207.32
2023-05-05T09:13:05.570Z,204.65
2023-05-05T09:14:05.560Z,206.52
2023-05-05T09:15:05.737Z,208.97
2023-05-05T09:16:05.623Z,207.60
2023-05-05T09:17:05.762Z,209.13
2023-05-05T09:18:05.761Z,206.53
2023-05-05T09:19:05.811Z,202.27
2023-05-05T09:20:05.868Z,202.74
2023-05-05T09:21:05.935Z,202.06
2023-05-05T09:22:05.983Z,196.80
2023-05-05T09:23:06.049Z,196.77
2023-05-05T09:24:08.488Z,196.10
2023-05-05T09:25:06.370Z,193.04
2023-05-05T09:26:06.077Z,199.57
2023-05-05T09:27:06.099Z,196.64
2023-05-05T09:28:06.470Z,193.72
2023-05-05T09:29:06.059Z,192.19
2023-05-05T09:30:06.052Z,187.50
2023-05-05T09:31:06.080Z,178.32
2023-05-05T09:32:06.086Z,179.73
2023-05-05T09:33:06.268Z,160.64
2023-05-05T09:34:06.021Z,142.94
2023-05-05T09:35:06.118Z,112.33
2023-05-05T09:36:06.017Z,90.12
2023-05-05T09:37:06.185Z,112.93
2023-05-05T09:38:06.181Z,80.18
2023-05-05T09:39:06.024Z,55.86
2023-05-05T09:40:05.998Z,29.46
2023-05-05T09:41:05.977Z,6.86
2023-05-05T09:42:05.987Z,16.07
2023-05-05T09:43:05.982Z,18.72
2023-05-05T09:44:06.032Z,24.58
2023-05-05T09:45:06.034Z,44.88
2023-05-05T09:46:05.979Z,54.47
2023-05-05T09:47:15.038Z,49.88
2023-05-05T09:48:07.004Z,50.26
2023-05-05T09:49:05.921Z,52.45
2023-05-05T09:50:06.056Z,44.62
2023-05-05T09:51:05.890Z,35.84
2023-05-05T09:52:05.904Z,40.50
2023-05-05T09:53:05.877Z,59.85
2023-05-05T09:54:05.924Z,78.05
2023-05-05T09:55:05.884Z,83.56
2023-05-05T09:56:05.897Z,91.21
2023-05-05T09:57:06.022Z,82.42
2023-05-05T09:58:05.991Z,85.77
2023-05-05T09:59:06.050Z,63.93
2023-05-05T10:00:06.237Z,53.60
2023-05-05T10:01:06.217Z,65.26
2023-05-05T10:02:06.163Z,53.41
2023-05-05T10:03:06.248Z,62.23
2023-05-05T10:04:06.206Z,68.05
2023-05-05T10:05:06.763Z,72.42
2023-05-05T10:06:06.198Z,85.67
2023-05-05T10:07:06.192Z,96.10
2023-05-05T10:08:06.233Z,93.34
2023-05-05T10:09:06.296Z,76.35
2023-05-05T10:10:06.463Z,63.18
2023-05-05T10:11:06.298Z,69.58
2023-05-05T10:12:06.291Z,87.57
2023-05-05T10:13:06.341Z,80.33
2023-05-05T10:14:06.330Z,58.59
2023-05-05T10:15:06.397Z,41.96
2023-05-05T10:16:06.560Z,56.18
2023-05-05T10:17:06.516Z,66.60
2023-05-05T10:18:08.221Z,71.43
2023-05-05T10:19:06.572Z,72.30
2023-05-05T10:20:06.887Z,73.50
2023-05-05T10:21:06.713Z,78.81
2023-05-05T10:22:06.698Z,47.91
2023-05-05T10:23:06.719Z,47.97
2023-05-05T10:24:06.775Z,34.09
2023-05-05T10:25:06.842Z,42.25
2023-05-05T10:26:06.862Z,51.78
2023-05-05T10:27:07.002Z,48.49
2023-05-05T10:28:07.013Z,41.73
2023-05-05T10:29:07.230Z,42.31
2023-05-05T10:30:07.418Z,40.34
2023-05-05T10:31:16.487Z,59.93
2023-05-05T10:32:24.386Z,60.54
2023-05-05T10:33:22.870Z,60.72
2023-05-05T10:35:07.134Z,66.00
2023-05-05T10:36:07.185Z,71.09
2023-05-05T10:37:07.145Z,80.10
2023-05-05T10:38:07.114Z,99.87
2023-05-05T10:39:07.158Z,116.44
2023-05-05T10:40:07.526Z,123.94
2023-05-05T10:41:07.112Z,125.87
2023-05-05T10:42:07.095Z,126.87
2023-05-05T10:43:07.119Z,138.19
2023-05-05T10:44:07.086Z,144.50
2023-05-05T10:45:07.082Z,152.91
2023-05-05T10:46:07.163Z,152.29
2023-05-05T10:47:07.067Z,156.43
2023-05-05T10:48:07.183Z,159.44
2023-05-05T10:49:07.073Z,154.62
2023-05-05T10:50:07.287Z,150.96
2023-05-05T10:51:07.042Z,157.03
2023-05-05T10:52:07.019Z,154.15
2023-05-05T10:53:07.012Z,160.44
2023-05-05T10:54:07.066Z,176.19
2023-05-05T10:55:07.025Z,184.04
2023-05-05T10:56:06.996Z,193.38
2023-05-05T10:57:07.002Z,191.60
2023-05-05T10:58:07.006Z,199.95
2023-05-05T10:59:07.004Z,202.87
2023-05-05T11:00:07.057Z,199.44
2023-05-05T11:01:06.998Z,197.15
2023-05-05T11:02:06.964Z,199.80
2023-05-05T11:03:07.035Z,200.18
2023-05-05T11:04:07.088Z,205.00
2023-05-05T11:05:06.964Z,207.06
2023-05-05T11:06:06.942Z,207.62
2023-05-05T11:07:06.931Z,207.92
2023-05-05T11:08:06.922Z,211.57
2023-05-05T11:09:06.962Z,210.45
2023-05-05T11:10:07.452Z,208.06
2023-05-05T11:11:06.902Z,207.73
2023-05-05T11:12:06.902Z,213.08
2023-05-05T11:13:06.930Z,207.89
2023-05-05T11:14:06.877Z,198.41
2023-05-05T11:15:07.225Z,190.67
2023-05-05T11:16:06.900Z,181.01
2023-05-05T11:17:06.918Z,177.78
2023-05-05T11:18:07.866Z,182.03
2023-05-05T11:19:06.842Z,171.09
2023-05-05T11:20:07.405Z,164.09
2023-05-05T11:21:06.824Z,167.07
2023-05-05T11:22:06.941Z,167.70
2023-05-05T11:23:06.969Z,167.66
2023-05-05T11:24:06.840Z,164.35
2023-05-05T11:25:06.886Z,167.49
2023-05-05T11:26:06.913Z,167.58
2023-05-05T11:27:06.964Z,162.93
2023-05-05T11:28:07.012Z,155.51
2023-05-05T11:29:07.138Z,163.61
2023-05-05T11:30:07.436Z,167.94
2023-05-05T11:31:07.175Z,164.02
2023-05-05T11:32:07.190Z,163.10
2023-05-05T11:33:07.400Z,159.89
2023-05-05T11:34:07.290Z,161.49
2023-05-05T11:35:07.342Z,161.79
2023-05-05T11:36:07.694Z,163.49
2023-05-05T11:37:07.468Z,156.28
2023-05-05T11:38:07.491Z,160.17
2023-05-05T11:39:07.573Z,166.16
2023-05-05T11:40:07.785Z,163.48
2023-05-05T11:41:07.692Z,167.25
2023-05-05T11:42:10.747Z,171.28
2023-05-05T11:43:07.733Z,172.36
2023-05-05T11:44:07.734Z,167.67
2023-05-05T11:45:07.738Z,170.06
2023-05-05T11:46:07.718Z,167.21
2023-05-05T11:47:07.718Z,171.85
2023-05-05T11:48:08.109Z,173.79
2023-05-05T11:49:07.699Z,163.34
2023-05-05T11:50:07.961Z,162.89
2023-05-05T11:51:07.674Z,166.55
2023-05-05T11:52:07.689Z,161.41
2023-05-05T11:53:07.676Z,165.85
2023-05-05T11:54:07.671Z,165.56
2023-05-05T11:55:07.649Z,161.81
2023-05-05T11:56:07.642Z,158.11
2023-05-05T11:57:07.722Z,161.61
2023-05-05T11:58:07.666Z,158.55
2023-05-05T11:59:07.619Z,156.71
2023-05-05T12:00:07.944Z,158.87
2023-05-05T12:01:07.596Z,156.68
2023-05-05T12:02:07.610Z,151.86
2023-05-05T12:03:07.716Z,155.02
2023-05-05T12:04:07.799Z,153.70
2023-05-05T12:05:07.595Z,154.80
2023-05-05T12:06:07.588Z,153.83
2023-05-05T12:07:07.637Z,155.69
2023-05-05T12:08:07.592Z,153.53
2023-05-05T12:09:07.559Z,154.28
2023-05-05T12:10:07.819Z,151.62
2023-05-05T12:11:07.547Z,151.57
2023-05-05T12:12:07.550Z,149.89
2023-05-05T12:13:07.594Z,146.91
2023-05-05T12:14:07.507Z,149.78
2023-05-05T12:15:07.536Z,145.19
2023-05-05T12:16:07.526Z,140.92
2023-05-05T12:17:07.548Z,140.10
2023-05-05T12:18:07.545Z,141.81
2023-05-05T12:19:07.465Z,132.06
2023-05-05T12:20:07.756Z,129.78
2023-05-05T12:21:07.465Z,123.13
2023-05-05T12:22:07.462Z,126.32
2023-05-05T12:23:07.462Z,138.08
2023-05-05T12:24:07.493Z,129.20
2023-05-05T12:25:07.462Z,129.09
2023-05-05T12:26:07.440Z,119.83
2023-05-05T12:27:07.572Z,126.88
2023-05-05T12:28:07.450Z,118.39
2023-05-05T12:29:07.416Z,118.26
2023-05-05T12:30:07.622Z,120.88
2023-05-05T12:31:07.414Z,129.58
2023-05-05T12:32:07.507Z,128.51